Chadron Municipal Airport Chadron US
ICAO: KCDR
IATA: CDR
Category: Medium
Scheduled Services: No

Elevation: 3297 ft
TransAlt. 18000 ft.

Airport Communications:
ASOS:118.05
DENVER CNTR:127.95
COLUMBUS RDO:122.5
CTAF/UNICOM:122.8

KCDR Zoom In..

If you have problems with the map follow the link
https://www.worldairports.se/pages/airport.php?
ICAO=KCDR

Runways:

(A) RW 02 length 5998 ft width 100 ft
ILS 110.90 / hdg 24

(B) RW 11 length 4400 ft width 75 ft
---- / hdg 114

(C) RW 20 length 5998 ft width 100 ft
---- / hdg 204

(D) RW 29 length 4400 ft width 75 ft
---- / hdg 294

Location; KCDR
Day. 07 / Time. 07.53 Zulu
* Altimeter: 30.07
* Temperature: -07° c. -19.4°f.
* Wind from: 250° Speed 05 kn.
Dewpoint: -09° c.
Visibility: 10 Statute Miles.
Clouds: Clear (automated report).

KCDR 070753Z AUTO 25005KT 10SM CLR M07/M09 A3007 RMK AO2 SLP222 T10721089


Wind From 250°
Speed 05 kn.

 
 
jpsmedia worldairports.se 2019   terms of use